Time,TemperatureF,DewpointF,PressureIn,WindDirection,WindDirectionDegrees,WindSpeedMPH,WindSpeedGustMPH,Humidity,HourlyPrecipIn,Conditions,Clouds,dailyrainin,SolarRadiationWatts/m^2,SoftwareType,DateUTC
2013-05-14 00:04:00,53.5,35.3,29.73,SSW,198,17.0,17.0,50,0.00,CLR,SCT,0.00,0.0,WeatherDisplay:10.37,2013-05-14 05:04:00,
2013-05-14 00:09:00,53.2,34.5,29.73,South,190,12.0,20.0,49,0.00,CLR,SCT,0.00,0.0,WeatherDisplay:10.37,2013-05-14 05:09:00,
2013-05-14 00:15:00,53.3,34.6,29.73,South,176,13.8,13.8,49,0.00,CLR,SCT,0.00,0.0,WeatherDisplay:10.37,2013-05-14 05:15:00,
2013-05-14 00:20:00,53.2,35.0,29.72,South,189,17.3,17.3,50,0.00,CLR,SCT,0.00,0.0,WeatherDisplay:10.37,2013-05-14 05:20:00,
2013-05-14 00:25:00,52.8,35.2,29.72,SSW,207,16.1,16.1,51,0.00,CLR,SCT,0.00,0.0,WeatherDisplay:10.37,2013-05-14 05:25:00,
2013-05-14 00:30:00,52.9,35.2,29.72,South,181,16.1,16.1,51,0.00,CLR,SCT,0.00,0.0,WeatherDisplay:10.37,2013-05-14 05:30:00,
2013-05-14 00:35:00,52.3,35.2,29.71,South,185,15.0,15.0,52,0.00,CLR,SCT,0.00,0.0,WeatherDisplay:10.37,2013-05-14 05:35:00,
2013-05-14 00:40:00,52.3,35.2,29.71,South,185,15.0,15.0,52,0.00,CLR,SCT,0.00,0.0,WeatherDisplay:10.37,2013-05-14 05:40:00,
2013-05-14 00:45:00,52.3,35.2,29.71,South,187,17.3,17.3,52,0.00,CLR,SCT,0.00,0.0,WeatherDisplay:10.37,2013-05-14 05:45:00,
2013-05-14 00:51:00,52.5,35.4,29.71,South,185,16.1,16.1,52,0.00,CLR,SCT,0.00,0.0,WeatherDisplay:10.37,2013-05-14 05:51:00,
2013-05-14 00:56:00,52.6,35.5,29.71,SSW,193,19.6,19.6,52,0.00,CLR,SCT,0.00,0.0,WeatherDisplay:10.37,2013-05-14 05:56:00,
2013-05-14 01:01:00,52.5,35.4,29.70,SSE,167,11.5,11.5,52,0.00,CLR,SCT,0.00,0.0,WeatherDisplay:10.37,2013-05-14 06:01:00,
2013-05-14 01:06:00,52.3,35.7,29.70,South,181,12.7,12.7,53,0.00,CLR,SCT,0.00,0.0,WeatherDisplay:10.37,2013-05-14 06:06:00,
2013-05-14 01:11:00,52.2,35.6,29.70,SSE,165,13.8,13.8,53,0.00,CLR,SCT,0.00,0.0,WeatherDisplay:10.37,2013-05-14 06:11:00,
2013-05-14 01:16:00,51.7,35.6,29.70,SSW,198,16.0,16.0,54,0.00,CLR,SCT,0.00,0.0,WeatherDisplay:10.37,2013-05-14 06:16:00,
2013-05-14 01:21:00,51.9,35.8,29.70,SSW,200,11.5,11.5,54,0.00,CLR,SCT,0.00,0.0,WeatherDisplay:10.37,2013-05-14 06:21:00,
2013-05-14 01:26:00,51.6,35.9,29.69,SSW,198,12.0,12.0,55,0.00,CLR,SCT,0.00,0.0,WeatherDisplay:10.37,2013-05-14 06:26:00,
2013-05-14 01:32:00,51.3,36.1,29.69,SSW,204,13.8,13.8,56,0.00,CLR,SCT,0.00,0.0,WeatherDisplay:10.37,2013-05-14 06:32:00,
2013-05-14 01:37:00,51.3,35.7,29.69,South,187,11.5,11.5,55,0.00,CLR,SCT,0.00,0.0,WeatherDisplay:10.37,2013-05-14 06:37:00,
2013-05-14 01:42:00,51.1,35.9,29.69,South,181,11.5,11.5,56,0.00,CLR,SCT,0.00,0.0,WeatherDisplay:10.37,2013-05-14 06:42:00,
2013-05-14 01:47:00,51.0,35.8,29.69,SSW,199,11.5,11.5,56,0.00,CLR,SCT,0.00,0.0,WeatherDisplay:10.37,2013-05-14 06:47:00,
2013-05-14 01:52:00,51.0,35.8,29.69,SSW,200,11.5,11.5,56,0.00,CLR,SCT,0.00,0.0,WeatherDisplay:10.37,2013-05-14 06:52:00,
2013-05-14 01:57:00,50.8,35.7,29.69,SSW,194,9.2,9.2,56,0.00,CLR,SCT,0.00,0.0,WeatherDisplay:10.37,2013-05-14 06:57:00,
2013-05-14 02:02:00,50.7,36.0,29.69,South,179,8.0,8.0,57,0.00,CLR,SCT,0.00,0.0,WeatherDisplay:10.37,2013-05-14 07:02:00,
2013-05-14 02:08:00,50.8,35.7,29.69,SW,223,11.5,11.5,56,0.00,CLR,SCT,0.00,0.0,WeatherDisplay:10.37,2013-05-14 07:08:00,
2013-05-14 02:13:00,50.7,36.0,29.69,South,176,8.1,8.1,57,0.00,CLR,SCT,0.00,0.0,WeatherDisplay:10.37,2013-05-14 07:13:00,
2013-05-14 02:18:00,50.1,36.3,29.69,SSW,196,9.2,9.2,59,0.00,CLR,SCT,0.00,0.0,WeatherDisplay:10.37,2013-05-14 07:18:00,
2013-05-14 02:23:00,49.8,36.0,29.68,SSW,197,11.0,11.0,59,0.00,CLR,SCT,0.00,0.0,WeatherDisplay:10.37,2013-05-14 07:23:00,
2013-05-14 02:28:00,49.6,35.8,29.68,SW,222,8.1,8.1,59,0.00,CLR,SCT,0.00,0.0,WeatherDisplay:10.37,2013-05-14 07:28:00,
2013-05-14 02:33:00,49.5,36.2,29.68,SSW,193,11.5,11.5,60,0.00,CLR,SCT,0.00,0.0,WeatherDisplay:10.37,2013-05-14 07:33:00,
2013-05-14 02:38:00,48.2,36.2,29.68,SSW,198,10.4,10.4,63,0.00,CLR,SCT,0.00,0.0,WeatherDisplay:10.37,2013-05-14 07:38:00,
2013-05-14 02:43:00,48.8,35.9,29.68,SSW,204,9.2,9.2,61,0.00,CLR,SCT,0.00,0.0,WeatherDisplay:10.37,2013-05-14 07:43:00,
2013-05-14 02:49:00,48.9,36.0,29.68,SSW,195,5.0,5.0,61,0.00,CLR,SCT,0.00,0.0,WeatherDisplay:10.37,2013-05-14 07:49:00,
2013-05-14 02:54:00,48.5,36.1,29.68,South,191,6.9,6.9,62,0.00,CLR,SCT,0.00,0.0,WeatherDisplay:10.37,2013-05-14 07:54:00,
2013-05-14 02:59:00,47.6,36.0,29.68,South,175,8.0,8.0,64,0.00,CLR,SCT,0.00,0.0,WeatherDisplay:10.37,2013-05-14 07:59:00,
2013-05-14 03:04:00,47.4,35.8,29.68,South,184,4.0,4.0,64,0.00,CLR,SCT,0.00,0.0,WeatherDisplay:10.37,2013-05-14 08:04:00,
2013-05-14 03:09:00,47.1,36.3,29.68,South,179,8.0,8.0,66,0.00,CLR,SCT,0.00,0.0,WeatherDisplay:10.37,2013-05-14 08:09:00,
2013-05-14 03:14:00,47.4,35.8,29.69,South,177,3.5,3.5,64,0.00,CLR,SCT,0.00,0.0,WeatherDisplay:10.37,2013-05-14 08:14:00,
2013-05-14 03:19:00,46.7,35.9,29.68,South,177,5.0,5.0,66,0.00,CLR,SCT,0.00,0.0,WeatherDisplay:10.37,2013-05-14 08:19:00,
2013-05-14 03:24:00,45.7,35.4,29.68,South,181,5.0,7.0,67,0.00,CLR,SCT,0.00,0.0,WeatherDisplay:10.37,2013-05-14 08:24:00,
2013-05-14 03:29:00,45.7,36.1,29.69,South,185,3.0,6.0,69,0.00,CLR,SCT,0.00,0.0,WeatherDisplay:10.37,2013-05-14 08:29:00,
2013-05-14 03:35:00,45.4,35.8,29.68,South,190,6.9,6.9,69,0.00,CLR,SCT,0.00,0.0,WeatherDisplay:10.37,2013-05-14 08:35:00,
2013-05-14 03:40:00,44.5,36.0,29.69,South,189,6.0,6.0,72,0.00,CLR,SCT,0.00,0.0,WeatherDisplay:10.37,2013-05-14 08:40:00,
2013-05-14 03:45:00,44.2,36.8,29.69,South,187,6.0,6.0,75,0.00,CLR,SCT,0.00,0.0,WeatherDisplay:10.37,2013-05-14 08:45:00,
2013-05-14 03:50:00,44.1,35.6,29.68,South,191,4.6,4.6,72,0.00,CLR,SCT,0.00,0.0,WeatherDisplay:10.37,2013-05-14 08:50:00,
2013-05-14 03:55:00,44.6,35.8,29.69,South,191,3.0,3.0,71,0.00,CLR,SCT,0.00,0.0,WeatherDisplay:10.37,2013-05-14 08:55:00,
2013-05-14 04:00:00,43.1,35.0,29.68,South,190,5.8,5.8,73,0.00,CLR,SCT,0.00,0.0,WeatherDisplay:10.37,2013-05-14 09:00:00,
2013-05-14 04:05:00,44.2,35.7,29.68,South,190,3.5,3.5,72,0.00,CLR,SCT,0.00,0.0,WeatherDisplay:10.37,2013-05-14 09:05:00,
2013-05-14 04:10:00,42.8,34.7,29.68,South,190,5.0,5.0,73,0.00,CLR,SCT,0.00,0.0,WeatherDisplay:10.37,2013-05-14 09:10:00,
2013-05-14 04:16:00,42.6,35.6,29.68,South,190,4.6,4.6,76,0.00,CLR,SCT,0.00,0.0,WeatherDisplay:10.37,2013-05-14 09:16:00,
2013-05-14 04:21:00,42.9,35.9,29.68,South,190,5.0,5.0,76,0.00,CLR,SCT,0.00,0.0,WeatherDisplay:10.37,2013-05-14 09:21:00,
2013-05-14 04:26:00,42.5,35.1,29.68,South,190,4.6,4.6,75,0.00,CLR,SCT,0.00,0.0,WeatherDisplay:10.37,2013-05-14 09:26:00,
2013-05-14 04:31:00,42.9,35.2,29.68,South,190,4.6,4.6,74,0.00,CLR,SCT,0.00,0.0,WeatherDisplay:10.37,2013-05-14 09:31:00,
2013-05-14 04:36:00,43.5,35.4,29.68,SSW,193,3.5,3.5,73,0.00,CLR,SCT,0.00,0.0,WeatherDisplay:10.37,2013-05-14 09:36:00,
2013-05-14 04:41:00,41.8,34.5,29.68,SSW,192,4.6,4.6,75,0.00,CLR,SCT,0.00,0.0,WeatherDisplay:10.37,2013-05-14 09:41:00,
2013-05-14 04:46:00,41.3,34.3,29.68,SSW,192,2.3,2.3,76,0.00,CLR,SCT,0.00,0.0,WeatherDisplay:10.37,2013-05-14 09:46:00,
2013-05-14 04:52:00,40.5,34.5,29.68,SSW,192,3.5,3.5,79,0.00,CLR,SCT,0.00,0.0,WeatherDisplay:10.37,2013-05-14 09:52:00,
2013-05-14 04:57:00,40.5,34.2,29.68,South,171,6.9,6.9,78,0.00,CLR,SCT,0.00,0.0,WeatherDisplay:10.37,2013-05-14 09:57:00,
2013-05-14 05:02:00,40.9,35.2,29.69,South,169,4.0,4.0,80,0.00,CLR,SCT,0.00,0.0,WeatherDisplay:10.37,2013-05-14 10:02:00,
2013-05-14 05:07:00,40.2,34.2,29.68,South,177,7.0,7.0,79,0.00,CLR,SCT,0.00,0.0,WeatherDisplay:10.37,2013-05-14 10:07:00,
2013-05-14 05:12:00,40.6,35.8,29.68,South,181,5.0,5.0,83,0.00,CLR,SCT,0.00,0.0,WeatherDisplay:10.37,2013-05-14 10:12:00,
2013-05-14 05:17:00,40.8,36.0,29.69,SSW,194,8.1,8.1,83,0.00,CLR,SCT,0.00,0.0,WeatherDisplay:10.37,2013-05-14 10:17:00,
2013-05-14 05:22:00,41.6,38.0,29.69,SSW,199,6.0,6.0,87,0.00,CLR,SCT,0.00,0.0,WeatherDisplay:10.37,2013-05-14 10:22:00,
2013-05-14 05:27:00,41.6,37.7,29.69,SSW,200,5.8,5.8,86,0.00,CLR,SCT,0.00,0.0,WeatherDisplay:10.37,2013-05-14 10:27:00,
2013-05-14 05:33:00,40.6,36.1,29.69,SSW,200,4.6,4.6,84,0.00,CLR,SCT,0.00,0.0,WeatherDisplay:10.37,2013-05-14 10:33:00,
2013-05-14 05:38:00,40.9,37.0,29.69,SSW,200,5.0,5.0,86,0.00,CLR,SCT,0.00,0.0,WeatherDisplay:10.37,2013-05-14 10:38:00,
2013-05-14 05:43:00,39.8,36.0,29.68,SSW,200,5.0,5.0,86,0.00,CLR,SCT,0.00,0.0,WeatherDisplay:10.37,2013-05-14 10:43:00,
2013-05-14 05:48:00,39.3,35.5,29.68,SSW,200,5.0,5.0,86,0.00,CLR,SCT,0.00,0.0,WeatherDisplay:10.37,2013-05-14 10:48:00,
2013-05-14 05:53:00,39.3,35.2,29.68,SSW,200,6.0,6.0,85,0.00,CLR,SCT,0.00,0.0,WeatherDisplay:10.37,2013-05-14 10:53:00,
2013-05-14 05:58:00,38.9,35.4,29.68,SSW,200,5.8,5.8,87,0.00,CLR,SCT,0.00,0.0,WeatherDisplay:10.37,2013-05-14 10:58:00,
2013-05-14 06:03:00,38.5,34.4,29.68,SSW,200,6.0,6.0,85,0.00,CLR,SCT,0.00,0.0,WeatherDisplay:10.37,2013-05-14 11:03:00,
2013-05-14 06:09:00,38.3,34.2,29.68,SSW,198,5.0,5.0,85,0.00,CLR,SCT,0.00,0.0,WeatherDisplay:10.37,2013-05-14 11:09:00,
2013-05-14 06:14:00,38.5,34.4,29.68,SSW,198,4.0,4.0,85,0.00,CLR,SCT,0.00,0.0,WeatherDisplay:10.37,2013-05-14 11:14:00,
2013-05-14 06:19:00,38.5,34.4,29.68,SSW,198,4.6,4.6,85,0.00,CLR,SCT,0.00,0.0,WeatherDisplay:10.37,2013-05-14 11:19:00,
2013-05-14 06:24:00,39.2,35.7,29.69,SSW,198,3.5,3.5,87,0.00,CLR,SCT,0.00,0.0,WeatherDisplay:10.37,2013-05-14 11:24:00,
2013-05-14 06:29:00,40.6,35.8,29.70,SSW,198,3.5,3.5,83,0.00,CLR,SCT,0.00,0.0,WeatherDisplay:10.37,2013-05-14 11:29:00,
2013-05-14 06:34:00,41.1,36.3,29.70,SSW,198,4.0,4.0,83,0.00,CLR,SCT,0.00,0.0,WeatherDisplay:10.37,2013-05-14 11:34:00,
2013-05-14 06:39:00,41.5,36.1,29.70,SSW,198,3.5,3.5,81,0.00,CLR,SCT,0.00,0.0,WeatherDisplay:10.37,2013-05-14 11:39:00,
2013-05-14 06:44:00,41.5,36.4,29.69,SSW,198,3.0,4.0,82,0.00,CLR,SCT,0.00,0.0,WeatherDisplay:10.37,2013-05-14 11:44:00,
2013-05-14 06:49:00,41.8,36.4,29.69,SSW,198,4.0,4.0,81,0.00,CLR,SCT,0.00,0.0,WeatherDisplay:10.37,2013-05-14 11:49:00,
2013-05-14 06:54:00,42.5,36.7,29.69,SSW,198,3.0,5.0,80,0.00,CLR,SCT,0.00,0.0,WeatherDisplay:10.37,2013-05-14 11:54:00,
2013-05-14 06:59:00,44.1,37.3,29.69,SSW,198,5.0,6.0,77,0.00,OVC,SCT,0.00,0.0,WeatherDisplay:10.37,2013-05-14 11:59:00,
2013-05-14 07:04:00,44.6,37.5,29.68,SSW,198,5.0,7.0,76,0.00,OVC,SCT,0.00,0.0,WeatherDisplay:10.37,2013-05-14 12:04:00,
2013-05-14 07:09:00,45.2,38.1,29.68,SSW,194,6.0,7.0,76,0.00,OVC,SCT,0.00,0.0,WeatherDisplay:10.37,2013-05-14 12:09:00,
2013-05-14 07:15:00,46.8,38.9,29.68,South,185,6.9,6.9,74,0.00,OVC,SCT,0.00,0.0,WeatherDisplay:10.37,2013-05-14 12:15:00,
2013-05-14 07:20:00,47.9,39.7,29.68,South,185,4.0,4.0,73,0.00,OVC,SCT,0.00,0.0,WeatherDisplay:10.37,2013-05-14 12:20:00,
2013-05-14 07:25:00,48.8,39.1,29.68,South,189,8.0,8.0,69,0.00,OVC,SCT,0.00,0.0,WeatherDisplay:10.37,2013-05-14 12:25:00,
2013-05-14 07:30:00,49.9,39.4,29.68,South,173,9.2,9.2,67,0.00,OVC,SCT,0.00,0.0,WeatherDisplay:10.37,2013-05-14 12:30:00,
2013-05-14 07:35:00,51.1,39.7,29.68,South,186,7.0,7.0,65,0.00,OVC,SCT,0.00,0.0,WeatherDisplay:10.37,2013-05-14 12:35:00,
2013-05-14 07:40:00,51.6,39.8,29.68,South,175,5.8,5.8,64,0.00,OVC,SCT,0.00,0.0,WeatherDisplay:10.37,2013-05-14 12:40:00,
2013-05-14 07:45:00,52.0,39.4,29.68,South,183,9.2,9.2,62,0.00,OVC,SCT,0.00,0.0,WeatherDisplay:10.37,2013-05-14 12:45:00,
2013-05-14 07:51:00,52.6,39.5,29.68,SSW,200,8.1,8.1,61,0.00,OVC,SCT,0.00,0.0,WeatherDisplay:10.37,2013-05-14 12:51:00,
2013-05-14 07:56:00,52.8,40.5,29.68,SSW,202,3.5,3.5,63,0.00,OVC,SCT,0.00,0.0,WeatherDisplay:10.37,2013-05-14 12:56:00,
2013-05-14 08:01:00,53.3,39.8,29.69,SSW,202,4.6,4.6,60,0.00,OVC,SCT,0.00,0.0,WeatherDisplay:10.37,2013-05-14 13:01:00,
2013-05-14 08:06:00,53.6,40.5,29.69,SSW,202,2.3,2.3,61,0.00,OVC,SCT,0.00,0.0,WeatherDisplay:10.37,2013-05-14 13:06:00,
2013-05-14 08:11:00,53.6,40.5,29.69,SSW,202,0.0,0.0,61,0.00,OVC,SCT,0.00,0.0,WeatherDisplay:10.37,2013-05-14 13:11:00,
2013-05-14 08:16:00,54.2,41.0,29.69,SSW,202,3.5,3.5,61,0.00,OVC,SCT,0.00,0.0,WeatherDisplay:10.37,2013-05-14 13:16:00,
2013-05-14 08:21:00,55.1,41.0,29.68,SSW,202,3.5,3.5,59,0.00,OVC,SCT,0.00,0.0,WeatherDisplay:10.37,2013-05-14 13:21:00,
2013-05-14 08:26:00,55.9,40.9,29.69,SSW,202,1.2,1.2,57,0.00,OVC,SCT,0.00,0.0,WeatherDisplay:10.37,2013-05-14 13:26:00,
2013-05-14 08:32:00,56.6,40.6,29.69,SSW,196,4.0,4.0,55,0.00,OVC,SCT,0.00,0.0,WeatherDisplay:10.37,2013-05-14 13:32:00,
2013-05-14 08:37:00,57.2,41.6,29.69,SSW,195,3.5,3.5,56,0.00,OVC,SCT,0.00,0.0,WeatherDisplay:10.37,2013-05-14 13:37:00,
2013-05-14 08:42:00,57.3,41.3,29.69,SSW,195,2.3,2.3,55,0.00,OVC,SCT,0.00,0.0,WeatherDisplay:10.37,2013-05-14 13:42:00,
2013-05-14 08:47:00,57.3,41.3,29.69,SSW,194,5.0,5.0,55,0.00,OVC,SCT,0.00,0.0,WeatherDisplay:10.37,2013-05-14 13:47:00,
2013-05-14 08:52:00,57.5,41.9,29.69,South,185,3.5,3.5,56,0.00,OVC,SCT,0.00,0.0,WeatherDisplay:10.37,2013-05-14 13:52:00,
2013-05-14 08:57:00,58.3,41.7,29.70,South,185,1.2,1.2,54,0.00,OVC,SCT,0.00,0.0,WeatherDisplay:10.37,2013-05-14 13:57:00,
2013-05-14 09:02:00,57.8,42.2,29.70,South,185,3.5,3.5,56,0.00,OVC,SCT,0.00,0.0,WeatherDisplay:10.37,2013-05-14 14:02:00,
2013-05-14 09:08:00,57.8,41.7,29.70,South,185,2.3,2.3,55,0.00,OVC,SCT,0.00,0.0,WeatherDisplay:10.37,2013-05-14 14:08:00,
2013-05-14 09:13:00,58.6,42.0,29.69,South,185,2.3,2.3,54,0.00,OVC,SCT,0.00,0.0,WeatherDisplay:10.37,2013-05-14 14:13:00,
2013-05-14 09:18:00,58.7,42.1,29.69,South,185,2.3,2.3,54,0.00,OVC,SCT,0.00,0.0,WeatherDisplay:10.37,2013-05-14 14:18:00,
2013-05-14 09:23:00,58.4,42.3,29.68,South,185,3.0,3.0,55,0.00,OVC,SCT,0.00,0.0,WeatherDisplay:10.37,2013-05-14 14:23:00,
2013-05-14 09:28:00,58.1,42.0,29.67,SE,140,4.6,4.6,55,0.00,OVC,SCT,0.00,0.0,WeatherDisplay:10.37,2013-05-14 14:28:00,
2013-05-14 09:33:00,57.8,42.7,29.67,East,96,7.0,7.0,57,0.00,OVC,SCT,0.00,0.0,WeatherDisplay:10.37,2013-05-14 14:33:00,
2013-05-14 09:38:00,57.6,42.5,29.68,ENE,72,6.0,6.0,57,0.00,OVC,SCT,0.00,0.0,WeatherDisplay:10.37,2013-05-14 14:38:00,
2013-05-14 09:43:00,57.0,43.7,29.70,SW,227,6.0,6.0,61,0.00,OVC,SCT,0.00,0.0,WeatherDisplay:10.37,2013-05-14 14:43:00,
2013-05-14 09:49:00,56.7,44.2,29.70,SW,230,2.3,2.3,63,0.00,OVC,SCT,0.00,0.0,WeatherDisplay:10.37,2013-05-14 14:49:00,
2013-05-14 09:54:00,56.9,43.6,29.71,SW,231,3.5,3.5,61,0.00,OVC,SCT,0.00,0.0,WeatherDisplay:10.37,2013-05-14 14:54:00,
2013-05-14 09:59:00,57.0,44.9,29.71,WSW,237,0.0,0.0,64,0.00,OVC,SCT,0.00,0.0,WeatherDisplay:10.37,2013-05-14 14:59:00,
2013-05-14 10:04:00,57.0,44.1,29.73,WSW,237,3.5,3.5,62,0.00,OVC,SCT,0.00,0.0,WeatherDisplay:10.37,2013-05-14 15:04:00,
2013-05-14 10:09:00,57.6,43.4,29.74,North,6,9.2,9.2,59,0.00,OVC,SCT,0.00,0.0,WeatherDisplay:10.37,2013-05-14 15:09:00,
2013-05-14 10:14:00,57.2,44.7,29.75,North,358,6.0,6.0,63,0.00,OVC,SCT,0.00,0.0,WeatherDisplay:10.37,2013-05-14 15:14:00,
2013-05-14 10:19:00,56.7,45.1,29.75,North,360,5.8,5.8,65,0.00,OVC,SCT,0.00,0.0,WeatherDisplay:10.37,2013-05-14 15:19:00,
2013-05-14 10:25:00,56.3,46.6,29.77,West,261,11.5,11.5,70,0.00,OVC,SCT,0.00,0.0,WeatherDisplay:10.37,2013-05-14 15:25:00,
2013-05-14 10:30:00,55.3,47.2,29.77,West,266,8.0,8.0,74,0.00,OVC,SCT,0.00,0.0,WeatherDisplay:10.37,2013-05-14 15:30:00,
2013-05-14 10:35:00,55.3,48.2,29.76,West,276,1.2,1.2,77,0.00,OVC,SCT,0.00,0.0,WeatherDisplay:10.37,2013-05-14 15:35:00,
2013-05-14 10:40:00,55.0,48.3,29.78,WNW,292,11.5,11.5,78,0.00,OVC,SCT,0.00,0.0,WeatherDisplay:10.37,2013-05-14 15:40:00,
2013-05-14 10:45:00,54.7,47.3,29.77,WNW,292,6.0,6.0,76,0.00,OVC,SCT,0.00,0.0,WeatherDisplay:10.37,2013-05-14 15:45:00,
2013-05-14 10:50:00,55.4,45.4,29.78,NW,309,9.2,9.2,69,0.00,OVC,SCT,0.00,0.0,WeatherDisplay:10.37,2013-05-14 15:50:00,
2013-05-14 10:55:00,56.2,46.5,29.78,NW,316,6.0,6.0,70,0.00,OVC,SCT,0.00,0.0,WeatherDisplay:10.37,2013-05-14 15:55:00,
2013-05-14 11:00:00,56.2,46.9,29.78,NW,316,5.0,5.0,71,0.00,OVC,SCT,0.00,0.0,WeatherDisplay:10.37,2013-05-14 16:00:00,
2013-05-14 11:06:00,57.2,46.7,29.78,NW,316,3.5,3.5,68,0.00,OVC,SCT,0.00,0.0,WeatherDisplay:10.37,2013-05-14 16:06:00,
2013-05-14 11:11:00,58.6,47.3,29.78,NW,316,3.5,3.5,66,0.00,OVC,SCT,0.00,0.0,WeatherDisplay:10.37,2013-05-14 16:11:00,
2013-05-14 11:16:00,58.9,46.7,29.78,NW,316,5.0,5.0,64,0.00,OVC,SCT,0.00,0.0,WeatherDisplay:10.37,2013-05-14 16:16:00,
2013-05-14 11:21:00,59.5,45.2,29.79,North,350,4.6,4.6,59,0.00,OVC,SCT,0.00,0.0,WeatherDisplay:10.37,2013-05-14 16:21:00,
2013-05-14 11:26:00,59.9,46.4,29.79,North,350,5.8,5.8,61,0.00,OVC,SCT,0.00,0.0,WeatherDisplay:10.37,2013-05-14 16:26:00,
2013-05-14 11:31:00,60.5,46.1,29.79,North,349,5.8,5.8,59,0.00,OVC,SCT,0.00,0.0,WeatherDisplay:10.37,2013-05-14 16:31:00,
2013-05-14 11:36:00,61.5,46.1,29.78,North,352,3.5,3.5,57,0.00,OVC,SCT,0.00,0.0,WeatherDisplay:10.37,2013-05-14 16:36:00,
2013-05-14 11:42:00,61.2,44.9,29.77,North,352,2.3,2.3,55,0.00,OVC,SCT,0.00,0.0,WeatherDisplay:10.37,2013-05-14 16:42:00,
2013-05-14 11:47:00,61.2,45.4,29.76,North,352,1.2,1.2,56,0.00,OVC,SCT,0.00,0.0,WeatherDisplay:10.37,2013-05-14 16:47:00,
2013-05-14 11:52:00,61.6,47.1,29.75,North,352,3.5,3.5,59,0.00,OVC,SCT,0.00,0.0,WeatherDisplay:10.37,2013-05-14 16:52:00,
2013-05-14 11:57:00,62.1,45.7,29.73,NE,48,6.0,6.0,55,0.00,OVC,SCT,0.00,0.0,WeatherDisplay:10.37,2013-05-14 16:57:00,
2013-05-14 12:02:00,63.1,47.1,29.72,NE,56,3.5,3.5,56,0.00,OVC,SCT,0.00,0.0,WeatherDisplay:10.37,2013-05-14 17:02:00,
2013-05-14 12:07:00,64.5,47.0,29.71,East,100,5.8,5.8,53,0.00,OVC,SCT,0.00,0.0,WeatherDisplay:10.37,2013-05-14 17:07:00,
2013-05-14 12:12:00,65.8,46.6,29.71,East,94,8.1,8.1,50,0.00,OVC,SCT,0.00,0.0,WeatherDisplay:10.37,2013-05-14 17:12:00,
2013-05-14 12:17:00,65.3,46.7,29.70,ESE,121,5.8,5.8,51,0.00,OVC,SCT,0.00,0.0,WeatherDisplay:10.37,2013-05-14 17:17:00,
2013-05-14 12:23:00,65.3,46.7,29.69,ESE,115,6.9,6.9,51,0.00,OVC,SCT,0.00,0.0,WeatherDisplay:10.37,2013-05-14 17:23:00,
2013-05-14 12:28:00,66.1,46.9,29.68,SE,125,9.2,9.2,50,0.00,OVC,SCT,0.00,0.0,WeatherDisplay:10.37,2013-05-14 17:28:00,
2013-05-14 12:33:00,68.4,46.8,29.68,SE,141,9.2,9.2,46,0.00,OVC,SCT,0.00,0.0,WeatherDisplay:10.37,2013-05-14 17:33:00,
2013-05-14 12:38:00,68.9,47.8,29.67,SE,142,4.6,4.6,47,0.00,OVC,SCT,0.00,0.0,WeatherDisplay:10.37,2013-05-14 17:38:00,
2013-05-14 12:43:00,69.9,46.4,29.67,SE,133,5.8,5.8,43,0.00,OVC,SCT,0.00,0.0,WeatherDisplay:10.37,2013-05-14 17:43:00,
2013-05-14 12:48:00,71.6,46.0,29.66,SE,140,8.0,8.0,40,0.00,OVC,SCT,0.00,0.0,WeatherDisplay:10.37,2013-05-14 17:48:00,
2013-05-14 12:53:00,71.3,45.7,29.65,ESE,104,8.1,8.1,40,0.00,OVC,SCT,0.00,0.0,WeatherDisplay:10.37,2013-05-14 17:53:00,
2013-05-14 12:58:00,72.1,46.4,29.64,ESE,121,8.1,8.1,40,0.00,OVC,SCT,0.00,0.0,WeatherDisplay:10.37,2013-05-14 17:58:00,
2013-05-14 13:04:00,72.7,47.0,29.63,East,98,10.0,10.0,40,0.00,OVC,SCT,0.00,0.0,WeatherDisplay:10.37,2013-05-14 18:04:00,
2013-05-14 13:09:00,73.9,46.0,29.62,SSE,167,11.5,11.5,37,0.00,OVC,SCT,0.00,0.0,WeatherDisplay:10.37,2013-05-14 18:09:00,
2013-05-14 13:14:00,73.7,46.5,29.62,SE,139,6.9,6.9,38,0.00,OVC,SCT,0.00,0.0,WeatherDisplay:10.37,2013-05-14 18:14:00,
2013-05-14 13:19:00,75.3,46.5,29.61,SSE,155,11.5,11.5,36,0.00,OVC,SCT,0.00,0.0,WeatherDisplay:10.37,2013-05-14 18:19:00,
2013-05-14 13:24:00,76.0,47.1,29.60,SSE,156,10.4,10.4,36,0.00,OVC,SCT,0.00,0.0,WeatherDisplay:10.37,2013-05-14 18:24:00,
2013-05-14 13:29:00,76.0,46.4,29.60,ESE,115,13.8,13.8,35,0.00,OVC,SCT,0.00,0.0,WeatherDisplay:10.37,2013-05-14 18:29:00,
2013-05-14 13:34:00,76.0,46.3,29.59,SSE,150,15.0,20.0,35,0.00,OVC,SCT,0.00,0.0,WeatherDisplay:10.37,2013-05-14 18:34:00,
2013-05-14 13:39:00,76.0,45.6,29.59,SE,129,16.1,16.1,34,0.00,OVC,SCT,0.00,0.0,WeatherDisplay:10.37,2013-05-14 18:39:00,
2013-05-14 13:44:00,76.7,45.4,29.59,SSE,156,12.0,21.0,33,0.00,OVC,SCT,0.00,0.0,WeatherDisplay:10.37,2013-05-14 18:44:00,
2013-05-14 13:49:00,77.4,46.0,29.58,SSW,195,18.4,18.4,33,0.00,OVC,SCT,0.00,0.0,WeatherDisplay:10.37,2013-05-14 18:49:00,
2013-05-14 13:54:00,77.9,43.1,29.58,SE,140,17.0,17.0,29,0.00,OVC,SCT,0.00,0.0,WeatherDisplay:10.37,2013-05-14 18:54:00,
2013-05-14 14:00:00,78.3,45.2,29.57,South,189,18.4,18.4,31,0.00,OVC,SCT,0.00,0.0,WeatherDisplay:10.37,2013-05-14 19:00:00,
2013-05-14 14:05:00,79.0,43.1,29.57,SE,146,15.0,15.0,28,0.00,OVC,SCT,0.00,0.0,WeatherDisplay:10.37,2013-05-14 19:05:00,
2013-05-14 14:10:00,79.6,43.6,29.57,SE,146,23.0,23.0,28,0.00,OVC,SCT,0.00,0.0,WeatherDisplay:10.37,2013-05-14 19:10:00,
2013-05-14 14:15:00,80.3,43.3,29.56,South,184,19.6,19.6,27,0.00,OVC,SCT,0.00,0.0,WeatherDisplay:10.37,2013-05-14 19:15:00,
2013-05-14 14:20:00,80.7,43.6,29.56,SSE,150,20.7,20.7,27,0.00,OVC,SCT,0.00,0.0,WeatherDisplay:10.37,2013-05-14 19:20:00,
2013-05-14 14:25:00,79.9,41.9,29.56,South,173,25.3,25.3,26,0.00,OVC,SCT,0.00,0.0,WeatherDisplay:10.37,2013-05-14 19:25:00,
2013-05-14 14:30:00,78.6,42.8,29.56,SSE,147,19.6,19.6,28,0.00,OVC,SCT,0.00,0.0,WeatherDisplay:10.37,2013-05-14 19:30:00,
2013-05-14 14:36:00,79.4,42.5,29.55,ESE,118,18.4,18.4,27,0.00,OVC,SCT,0.00,0.0,WeatherDisplay:10.37,2013-05-14 19:36:00,
2013-05-14 14:41:00,80.3,43.3,29.55,South,172,19.6,19.6,27,0.00,OVC,SCT,0.00,0.0,WeatherDisplay:10.37,2013-05-14 19:41:00,
2013-05-14 14:46:00,81.6,42.4,29.55,South,176,19.6,19.6,25,0.00,OVC,SCT,0.00,0.0,WeatherDisplay:10.37,2013-05-14 19:46:00,
2013-05-14 14:51:00,81.6,42.4,29.54,SSE,152,23.0,23.0,25,0.00,OVC,SCT,0.00,0.0,WeatherDisplay:10.37,2013-05-14 19:51:00,
2013-05-14 14:56:00,82.4,43.0,29.54,SSE,168,17.3,17.3,25,0.00,OVC,SCT,0.00,0.0,WeatherDisplay:10.37,2013-05-14 19:56:00,
2013-05-14 15:01:00,83.0,42.5,29.54,SSW,193,19.6,19.6,24,0.00,OVC,SCT,0.00,0.0,WeatherDisplay:10.37,2013-05-14 20:01:00,
2013-05-14 15:06:00,83.4,42.8,29.53,ESE,112,21.9,21.9,24,0.00,OVC,SCT,0.00,0.0,WeatherDisplay:10.37,2013-05-14 20:06:00,
2013-05-14 15:11:00,83.8,43.2,29.53,SSW,204,19.6,19.6,24,0.00,OVC,SCT,0.00,0.0,WeatherDisplay:10.37,2013-05-14 20:11:00,
2013-05-14 15:17:00,83.4,41.7,29.53,South,189,24.2,24.2,23,0.00,OVC,SCT,0.00,0.0,WeatherDisplay:10.37,2013-05-14 20:17:00,
2013-05-14 15:22:00,83.6,43.0,29.52,SSE,160,20.0,20.0,24,0.00,OVC,SCT,0.00,0.0,WeatherDisplay:10.37,2013-05-14 20:22:00,
2013-05-14 15:27:00,83.0,41.4,29.52,SSE,150,20.7,20.7,23,0.00,OVC,SCT,0.00,0.0,WeatherDisplay:10.37,2013-05-14 20:27:00,
2013-05-14 15:32:00,82.8,41.2,29.52,SSW,200,24.2,24.2,23,0.00,OVC,SCT,0.00,0.0,WeatherDisplay:10.37,2013-05-14 20:32:00,
2013-05-14 15:37:00,83.2,41.5,29.51,South,171,11.5,11.5,23,0.00,OVC,SCT,0.00,0.0,WeatherDisplay:10.37,2013-05-14 20:37:00,
2013-05-14 15:42:00,83.8,40.9,29.51,SSE,155,17.3,17.3,22,0.00,OVC,SCT,0.00,0.0,WeatherDisplay:10.37,2013-05-14 20:42:00,
2013-05-14 15:47:00,84.0,41.1,29.51,SW,232,24.2,24.2,22,0.00,OVC,SCT,0.00,0.0,WeatherDisplay:10.37,2013-05-14 20:47:00,
2013-05-14 15:53:00,84.0,43.3,29.50,SSE,164,19.6,19.6,24,0.00,OVC,SCT,0.00,0.0,WeatherDisplay:10.37,2013-05-14 20:53:00,
2013-05-14 15:58:00,84.1,43.4,29.50,SW,216,23.0,23.0,24,0.00,OVC,SCT,0.00,0.0,WeatherDisplay:10.37,2013-05-14 20:58:00,
2013-05-14 16:03:00,84.1,42.3,29.50,SW,236,26.5,26.5,23,0.00,OVC,SCT,0.00,0.0,WeatherDisplay:10.37,2013-05-14 21:03:00,
2013-05-14 16:08:00,84.1,42.3,29.49,South,191,20.7,20.7,23,0.00,OVC,SCT,0.00,0.0,WeatherDisplay:10.37,2013-05-14 21:08:00,
2013-05-14 16:13:00,84.0,44.4,29.49,SSW,210,18.4,18.4,25,0.00,OVC,SCT,0.00,0.0,WeatherDisplay:10.37,2013-05-14 21:13:00,
2013-05-14 16:18:00,84.0,42.2,29.48,South,190,23.0,23.0,23,0.00,OVC,SCT,0.00,0.0,WeatherDisplay:10.37,2013-05-14 21:18:00,
2013-05-14 16:23:00,83.0,43.5,29.48,SSW,210,25.3,25.3,25,0.00,OVC,SCT,0.00,0.0,WeatherDisplay:10.37,2013-05-14 21:23:00,
2013-05-14 16:28:00,82.6,43.2,29.48,WSW,237,28.8,28.8,25,0.00,OVC,SCT,0.00,0.0,WeatherDisplay:10.37,2013-05-14 21:28:00,
2013-05-14 16:34:00,81.4,45.2,29.48,SW,221,27.6,27.6,28,0.00,OVC,SCT,0.00,0.0,WeatherDisplay:10.37,2013-05-14 21:34:00,
2013-05-14 16:39:00,81.8,43.6,29.48,SSW,206,27.6,27.6,26,0.00,OVC,SCT,0.00,0.0,WeatherDisplay:10.37,2013-05-14 21:39:00,
2013-05-14 16:44:00,82.4,44.1,29.48,SW,217,26.0,26.0,26,0.00,OVC,SCT,0.00,0.0,WeatherDisplay:10.37,2013-05-14 21:44:00,
2013-05-14 16:49:00,81.2,45.0,29.48,WSW,237,23.0,23.0,28,0.00,OVC,SCT,0.00,0.0,WeatherDisplay:10.37,2013-05-14 21:49:00,
2013-05-14 16:54:00,81.6,43.4,29.48,WSW,246,24.2,24.2,26,0.00,OVC,SCT,0.00,0.0,WeatherDisplay:10.37,2013-05-14 21:54:00,
2013-05-14 16:59:00,81.4,44.2,29.48,SW,221,20.0,20.0,27,0.00,OVC,SCT,0.00,0.0,WeatherDisplay:10.37,2013-05-14 21:59:00,
2013-05-14 17:04:00,81.0,43.9,29.48,SW,228,15.0,28.0,27,0.00,OVC,SCT,0.00,0.0,WeatherDisplay:10.37,2013-05-14 22:04:00,
2013-05-14 17:09:00,81.2,44.0,29.48,SW,220,26.5,26.5,27,0.00,OVC,SCT,0.00,0.0,WeatherDisplay:10.37,2013-05-14 22:09:00,
2013-05-14 17:14:00,81.4,45.1,29.48,SSW,213,14.0,24.0,28,0.00,OVC,SCT,0.00,0.0,WeatherDisplay:10.37,2013-05-14 22:14:00,
2013-05-14 17:19:00,80.3,44.2,29.47,WSW,238,17.3,17.3,28,0.00,OVC,SCT,0.00,0.0,WeatherDisplay:10.37,2013-05-14 22:19:00,
2013-05-14 17:24:00,80.7,44.6,29.47,SW,228,26.5,26.5,28,0.00,OVC,SCT,0.00,0.0,WeatherDisplay:10.37,2013-05-14 22:24:00,
2013-05-14 17:30:00,81.2,45.0,29.47,SSW,194,31.1,31.1,28,0.00,OVC,SCT,0.00,0.0,WeatherDisplay:10.37,2013-05-14 22:30:00,
2013-05-14 17:35:00,81.4,45.2,29.47,SSW,205,18.4,18.4,28,0.00,OVC,SCT,0.00,0.0,WeatherDisplay:10.37,2013-05-14 22:35:00,
2013-05-14 17:40:00,81.4,45.2,29.46,South,185,24.2,24.2,28,0.00,OVC,SCT,0.00,0.0,WeatherDisplay:10.37,2013-05-14 22:40:00,
2013-05-14 17:45:00,81.1,44.9,29.46,SSW,204,19.6,19.6,28,0.00,OVC,SCT,0.00,0.0,WeatherDisplay:10.37,2013-05-14 22:45:00,
2013-05-14 17:50:00,80.9,45.7,29.45,SW,225,11.5,11.5,29,0.00,OVC,SCT,0.00,0.0,WeatherDisplay:10.37,2013-05-14 22:50:00,
2013-05-14 17:55:00,81.1,46.7,29.45,SSW,207,12.0,12.0,30,0.00,OVC,SCT,0.00,0.0,WeatherDisplay:10.37,2013-05-14 22:55:00,
2013-05-14 18:00:00,81.2,45.9,29.44,South,187,12.0,12.0,29,0.00,OVC,SCT,0.00,0.0,WeatherDisplay:10.37,2013-05-14 23:00:00,
2013-05-14 18:06:00,80.9,45.7,29.44,SSW,211,19.6,19.6,29,0.00,OVC,SCT,0.00,0.0,WeatherDisplay:10.37,2013-05-14 23:06:00,
2013-05-14 18:11:00,80.7,46.4,29.44,South,175,13.8,13.8,30,0.00,OVC,SCT,0.00,0.0,WeatherDisplay:10.37,2013-05-14 23:11:00,
2013-05-14 18:16:00,80.7,45.5,29.43,South,178,19.0,19.0,29,0.00,OVC,SCT,0.00,0.0,WeatherDisplay:10.37,2013-05-14 23:16:00,
2013-05-14 18:21:00,80.9,45.7,29.43,SSE,166,16.1,16.1,29,0.00,OVC,SCT,0.00,0.0,WeatherDisplay:10.37,2013-05-14 23:21:00,
2013-05-14 18:26:00,80.5,45.3,29.43,South,179,23.0,23.0,29,0.00,OVC,SCT,0.00,0.0,WeatherDisplay:10.37,2013-05-14 23:26:00,
2013-05-14 18:31:00,80.3,45.1,29.42,South,179,16.1,16.1,29,0.00,OVC,SCT,0.00,0.0,WeatherDisplay:10.37,2013-05-14 23:31:00,
2013-05-14 18:36:00,79.9,45.7,29.42,SSW,212,19.6,19.6,30,0.00,OVC,SCT,0.00,0.0,WeatherDisplay:10.37,2013-05-14 23:36:00,
2013-05-14 18:41:00,79.9,45.7,29.42,SSW,194,22.0,22.0,30,0.00,OVC,SCT,0.00,0.0,WeatherDisplay:10.37,2013-05-14 23:41:00,
2013-05-14 18:47:00,79.8,46.5,29.42,South,171,29.0,29.0,31,0.00,OVC,SCT,0.00,0.0,WeatherDisplay:10.37,2013-05-14 23:47:00,
2013-05-14 18:52:00,79.8,45.6,29.42,South,178,23.0,23.0,30,0.00,OVC,SCT,0.00,0.0,WeatherDisplay:10.37,2013-05-14 23:52:00,
2013-05-14 18:57:00,79.6,45.4,29.41,SSW,192,11.5,11.5,30,0.00,OVC,SCT,0.00,0.0,WeatherDisplay:10.37,2013-05-14 23:57:00,
2013-05-14 19:02:00,79.4,46.1,29.41,SSE,167,19.6,19.6,31,0.00,,SCT,0.00,0.0,WeatherDisplay:10.37,2013-05-15 00:02:00,
2013-05-14 19:07:00,79.4,46.1,29.41,South,186,20.7,20.7,31,0.00,,SCT,0.00,0.0,WeatherDisplay:10.37,2013-05-15 00:07:00,
2013-05-14 19:12:00,79.2,46.8,29.41,South,169,17.3,17.3,32,0.00,,SCT,0.00,0.0,WeatherDisplay:10.37,2013-05-15 00:12:00,
2013-05-14 19:17:00,78.6,47.1,29.40,SW,219,23.0,23.0,33,0.00,,SCT,0.00,0.0,WeatherDisplay:10.37,2013-05-15 00:17:00,
2013-05-14 19:23:00,78.5,47.0,29.40,SSE,159,20.0,20.0,33,0.00,,SCT,0.00,0.0,WeatherDisplay:10.37,2013-05-15 00:23:00,
2013-05-14 19:28:00,78.3,46.8,29.40,South,184,12.0,12.0,33,0.00,,SCT,0.00,0.0,WeatherDisplay:10.37,2013-05-15 00:28:00,
2013-05-14 19:33:00,78.1,47.4,29.40,South,183,12.7,12.7,34,0.00,,SCT,0.00,0.0,WeatherDisplay:10.37,2013-05-15 00:33:00,
2013-05-14 19:38:00,77.7,47.9,29.40,South,174,15.0,15.0,35,0.00,,SCT,0.00,0.0,WeatherDisplay:10.37,2013-05-15 00:38:00,
2013-05-14 19:43:00,77.2,48.2,29.39,South,171,13.8,13.8,36,0.00,,SCT,0.00,0.0,WeatherDisplay:10.37,2013-05-15 00:43:00,
2013-05-14 19:48:00,76.8,47.8,29.39,South,187,15.0,15.0,36,0.00,,SCT,0.00,0.0,WeatherDisplay:10.37,2013-05-15 00:48:00,
2013-05-14 19:53:00,76.5,47.6,29.39,South,189,13.8,13.8,36,0.00,,SCT,0.00,0.0,WeatherDisplay:10.37,2013-05-15 00:53:00,
2013-05-14 19:59:00,76.7,47.7,29.39,SSW,200,16.1,16.1,36,0.00,,SCT,0.00,0.0,WeatherDisplay:10.37,2013-05-15 00:59:00,
2013-05-14 20:04:00,76.1,47.9,29.39,South,190,13.8,13.8,37,0.00,,SCT,0.00,0.0,WeatherDisplay:10.37,2013-05-15 01:04:00,
2013-05-14 20:09:00,75.6,48.2,29.39,SSW,201,17.0,17.0,38,0.00,,SCT,0.00,0.0,WeatherDisplay:10.37,2013-05-15 01:09:00,
2013-05-14 20:14:00,75.1,48.4,29.39,SSW,213,12.7,12.7,39,0.00,,SCT,0.00,0.0,WeatherDisplay:10.37,2013-05-15 01:14:00,
2013-05-14 20:19:00,75.1,47.8,29.39,SSW,200,15.0,15.0,38,0.00,,SCT,0.00,0.0,WeatherDisplay:10.37,2013-05-15 01:19:00,
2013-05-14 20:24:00,74.7,48.1,29.39,SSW,210,13.8,13.8,39,0.00,,SCT,0.00,0.0,WeatherDisplay:10.37,2013-05-15 01:24:00,
2013-05-14 20:29:00,74.7,48.1,29.39,SSW,204,11.5,11.5,39,0.00,,SCT,0.00,0.0,WeatherDisplay:10.37,2013-05-15 01:29:00,
2013-05-14 20:34:00,74.7,48.1,29.40,SSW,201,6.0,12.0,39,0.00,,SCT,0.00,0.0,WeatherDisplay:10.37,2013-05-15 01:34:00,
2013-05-14 20:39:00,74.4,48.5,29.40,SSW,204,9.0,9.0,40,0.00,,SCT,0.00,0.0,WeatherDisplay:10.37,2013-05-15 01:39:00,
2013-05-14 20:44:00,73.0,50.4,29.41,WSW,249,10.0,13.0,45,0.00,,SCT,0.00,0.0,WeatherDisplay:10.37,2013-05-15 01:44:00,
2013-05-14 20:49:00,72.3,49.8,29.41,West,279,11.5,11.5,45,0.00,,SCT,0.00,0.0,WeatherDisplay:10.37,2013-05-15 01:49:00,
2013-05-14 20:54:00,71.3,50.6,29.43,NNW,346,16.1,16.1,48,0.00,,SCT,0.00,0.0,WeatherDisplay:10.37,2013-05-15 01:54:00,
2013-05-14 21:00:00,73.0,49.2,29.45,West,281,21.9,21.9,43,0.00,,SCT,0.00,0.0,WeatherDisplay:10.37,2013-05-15 02:00:00,
2013-05-14 21:05:00,73.7,48.5,29.45,WNW,284,22.0,22.0,41,0.00,,SCT,0.00,0.0,WeatherDisplay:10.37,2013-05-15 02:05:00,
2013-05-14 21:10:00,74.0,44.6,29.45,West,266,25.3,25.3,35,0.00,,SCT,0.00,0.0,WeatherDisplay:10.37,2013-05-15 02:10:00,
2013-05-14 21:15:00,74.2,42.4,29.46,West,261,24.2,24.2,32,0.00,,SCT,0.00,0.0,WeatherDisplay:10.37,2013-05-15 02:15:00,
2013-05-14 21:20:00,73.9,40.5,29.46,West,266,15.0,15.0,30,0.00,,SCT,0.00,0.0,WeatherDisplay:10.37,2013-05-15 02:20:00,
2013-05-14 21:25:00,73.2,40.7,29.46,West,275,19.6,19.6,31,0.00,,SCT,0.00,0.0,WeatherDisplay:10.37,2013-05-15 02:25:00,
2013-05-14 21:30:00,73.0,38.9,29.47,West,277,28.0,28.0,29,0.00,,SCT,0.00,0.0,WeatherDisplay:10.37,2013-05-15 02:30:00,
2013-05-14 21:36:00,72.7,36.8,29.47,WNW,293,19.6,19.6,27,0.00,,SCT,0.00,0.0,WeatherDisplay:10.37,2013-05-15 02:36:00,
2013-05-14 21:41:00,72.1,37.2,29.47,WNW,294,23.0,23.0,28,0.00,,SCT,0.00,0.0,WeatherDisplay:10.37,2013-05-15 02:41:00,
2013-05-14 21:46:00,71.8,36.9,29.48,West,266,18.4,18.4,28,0.00,,SCT,0.00,0.0,WeatherDisplay:10.37,2013-05-15 02:46:00,
2013-05-14 21:51:00,70.8,36.1,29.48,West,266,18.4,18.4,28,0.00,,SCT,0.00,0.0,WeatherDisplay:10.37,2013-05-15 02:51:00,
2013-05-14 21:56:00,70.3,38.2,29.49,NW,307,12.7,12.7,31,0.00,,SCT,0.00,0.0,WeatherDisplay:10.37,2013-05-15 02:56:00,
2013-05-14 22:01:00,69.4,36.6,29.49,West,278,12.0,12.0,30,0.00,,SCT,0.00,0.0,WeatherDisplay:10.37,2013-05-15 03:01:00,
2013-05-14 22:06:00,69.1,37.2,29.49,WNW,288,13.0,13.0,31,0.00,,SCT,0.00,0.0,WeatherDisplay:10.37,2013-05-15 03:06:00,
2013-05-14 22:11:00,68.6,37.5,29.49,WNW,290,12.0,12.0,32,0.00,,SCT,0.00,0.0,WeatherDisplay:10.37,2013-05-15 03:11:00,
2013-05-14 22:17:00,67.8,39.1,29.49,WNW,296,11.5,11.5,35,0.00,,SCT,0.00,0.0,WeatherDisplay:10.37,2013-05-15 03:17:00,
2013-05-14 22:22:00,67.4,38.0,29.49,WNW,300,12.7,12.7,34,0.00,,SCT,0.00,0.0,WeatherDisplay:10.37,2013-05-15 03:22:00,
2013-05-14 22:27:00,67.3,38.0,29.50,WNW,299,11.5,11.5,34,0.00,,SCT,0.00,0.0,WeatherDisplay:10.37,2013-05-15 03:27:00,
2013-05-14 22:32:00,67.3,37.2,29.50,NW,321,11.5,11.5,33,0.00,,SCT,0.00,0.0,WeatherDisplay:10.37,2013-05-15 03:32:00,
2013-05-14 22:37:00,66.9,37.6,29.50,WNW,286,11.5,11.5,34,0.00,,SCT,0.00,0.0,WeatherDisplay:10.37,2013-05-15 03:37:00,
2013-05-14 22:42:00,66.4,38.6,29.50,WNW,287,11.5,11.5,36,0.00,,SCT,0.00,0.0,WeatherDisplay:10.37,2013-05-15 03:42:00,
2013-05-14 22:47:00,66.1,39.1,29.50,NW,308,15.0,15.0,37,0.00,,SCT,0.00,0.0,WeatherDisplay:10.37,2013-05-15 03:47:00,
2013-05-14 22:53:00,66.3,37.8,29.50,West,277,12.7,12.7,35,0.00,,SCT,0.00,0.0,WeatherDisplay:10.37,2013-05-15 03:53:00,
2013-05-14 22:58:00,66.6,38.8,29.51,WNW,294,12.7,12.7,36,0.00,,SCT,0.00,0.0,WeatherDisplay:10.37,2013-05-15 03:58:00,
2013-05-14 23:01:00,66.4,38.6,29.51,WNW,289,24.2,24.2,36,0.00,,SCT,0.00,0.0,WeatherDisplay:10.37,2013-05-15 04:01:00,
2013-05-14 23:02:00,66.4,38.6,29.51,WNW,296,19.6,19.6,36,0.00,,SCT,0.00,0.0,WeatherDisplay:10.37,2013-05-15 04:02:00,
2013-05-14 23:03:00,66.3,38.5,29.51,WNW,289,17.3,17.3,36,0.00,,SCT,0.00,0.0,WeatherDisplay:10.37,2013-05-15 04:03:00,
2013-05-14 23:04:00,66.3,39.2,29.51,WNW,298,23.0,23.0,37,0.00,,SCT,0.00,0.0,WeatherDisplay:10.37,2013-05-15 04:04:00,
2013-05-14 23:09:00,66.0,39.7,29.51,NW,318,18.4,18.4,38,0.00,,SCT,0.00,0.0,WeatherDisplay:10.37,2013-05-15 04:09:00,
2013-05-14 23:14:00,65.5,40.5,29.52,NW,311,20.7,20.7,40,0.00,,SCT,0.00,0.0,WeatherDisplay:10.37,2013-05-15 04:14:00,
2013-05-14 23:19:00,65.2,40.9,29.52,WNW,285,15.0,15.0,41,0.00,,SCT,0.00,0.0,WeatherDisplay:10.37,2013-05-15 04:19:00,
2013-05-14 23:25:00,64.8,42.4,29.52,WNW,290,19.6,19.6,44,0.00,,SCT,0.00,0.0,WeatherDisplay:10.37,2013-05-15 04:25:00,
2013-05-14 23:30:00,64.7,42.3,29.52,NNW,327,20.0,20.0,44,0.00,,SCT,0.00,0.0,WeatherDisplay:10.37,2013-05-15 04:30:00,
2013-05-14 23:35:00,64.3,43.6,29.53,West,271,21.0,21.0,47,0.00,,SCT,0.00,0.0,WeatherDisplay:10.37,2013-05-15 04:35:00,
2013-05-14 23:40:00,64.2,43.5,29.53,WNW,294,13.0,13.0,47,0.00,,SCT,0.00,0.0,WeatherDisplay:10.37,2013-05-15 04:40:00,
2013-05-14 23:45:00,63.9,43.8,29.53,NW,311,19.6,19.6,48,0.00,,SCT,0.00,0.0,WeatherDisplay:10.37,2013-05-15 04:45:00,
2013-05-14 23:50:00,63.5,43.4,29.53,West,279,17.3,17.3,48,0.00,,SCT,0.00,0.0,WeatherDisplay:10.37,2013-05-15 04:50:00,
2013-05-14 23:55:00,63.1,43.1,29.54,WNW,295,17.3,17.3,48,0.00,,SCT,0.00,0.0,WeatherDisplay:10.37,2013-05-15 04:55:00,